Decoded Metar for KATY (WATERTOWN in SD, USA) (IATA:ATY) | Meteo·Mobile Aviation Weather
aviador You're here:

KATY Decoded Metar

WATERTOWN in SD, USA
Report Time2019-04-23 15:53:00
UTC Time2019-04-23 16:40:56
Flight Rules vfr VFR
Wind210° at 12 kt
W.Decomp.*RWY 17: 9.9 kt HW 6.7 kt RCW
RWY 12: 1.3 kt HW 11.9 kt RCW
Visibility9999 m
Phenomena:N/A
Clouds:N/A
Expected CloudBase > 4,000 ft AGL from Temp-Dew spread
CeilingNone
Temp14°C (ISA +2)
Dew Point04°C (51% RH)
AAT8.4°C
QNH1020 hPa
Density Alt1,916 ft
Elevation1,745 ft
Report Wrong Elevation
Raw Report
KATY 231553Z AUTO 21012KT 10SM CLR 14/04 A3013 RMK AO2 SLP211
T01390039=

Extra information for KATY:More info

Metar Taf Metar & Taf Last 4 Metars F.Rules Stats Wind Profile Meteogram Temp Stats Airport Information Weather charts Add Link Nearby VenuesMetar ALERT Operation Metar Decoded Social comments

AIRNAV info for KATY